sensor_id;sensor_type;location;lat;lon;timestamp;P1;durP1;ratioP1;P2;durP2;ratioP2
68976;SDS011;56029;52.568;13.588;2023-04-15T00:02:17;70.47;;;26.15;;
68976;SDS011;56029;52.568;13.588;2023-04-15T00:04:44;65.85;;;24.05;;
68976;SDS011;56029;52.568;13.588;2023-04-15T00:07:10;72.93;;;26.23;;
68976;SDS011;56029;52.568;13.588;2023-04-15T00:09:36;61.73;;;23.17;;
68976;SDS011;56029;52.568;13.588;2023-04-15T00:12:02;72.30;;;26.45;;
68976;SDS011;56029;52.568;13.588;2023-04-15T00:14:28;75.60;;;25.03;;
68976;SDS011;56029;52.568;13.588;2023-04-15T00:16:53;68.53;;;25.98;;
68976;SDS011;56029;52.568;13.588;2023-04-15T00:19:20;73.57;;;26.37;;
68976;SDS011;56029;52.568;13.588;2023-04-15T00:21:46;78.55;;;27.08;;
68976;SDS011;56029;52.568;13.588;2023-04-15T00:24:11;80.33;;;27.53;;
68976;SDS011;56029;52.568;13.588;2023-04-15T00:26:37;77.85;;;27.73;;
68976;SDS011;56029;52.568;13.588;2023-04-15T00:29:03;77.03;;;27.92;;
68976;SDS011;56029;52.568;13.588;2023-04-15T00:31:29;73.27;;;26.73;;
68976;SDS011;56029;52.568;13.588;2023-04-15T00:33:55;74.85;;;27.25;;
68976;SDS011;56029;52.568;13.588;2023-04-15T00:36:21;80.63;;;28.43;;
68976;SDS011;56029;52.568;13.588;2023-04-15T00:38:47;81.55;;;26.77;;
68976;SDS011;56029;52.568;13.588;2023-04-15T00:41:13;82.73;;;28.20;;
68976;SDS011;56029;52.568;13.588;2023-04-15T00:43:39;75.40;;;26.65;;
68976;SDS011;56029;52.568;13.588;2023-04-15T00:46:04;75.63;;;27.03;;
68976;SDS011;56029;52.568;13.588;2023-04-15T00:48:31;83.07;;;27.85;;
68976;SDS011;56029;52.568;13.588;2023-04-15T00:50:56;76.63;;;27.47;;
68976;SDS011;56029;52.568;13.588;2023-04-15T00:53:22;82.22;;;27.63;;
68976;SDS011;56029;52.568;13.588;2023-04-15T00:55:48;77.67;;;28.97;;
68976;SDS011;56029;52.568;13.588;2023-04-15T00:58:14;80.60;;;27.42;;
68976;SDS011;56029;52.568;13.588;2023-04-15T01:00:41;82.47;;;28.17;;
68976;SDS011;56029;52.568;13.588;2023-04-15T01:03:07;86.85;;;28.35;;
68976;SDS011;56029;52.568;13.588;2023-04-15T01:05:33;83.30;;;27.37;;
68976;SDS011;56029;52.568;13.588;2023-04-15T01:07:59;78.15;;;28.05;;
68976;SDS011;56029;52.568;13.588;2023-04-15T01:10:24;80.80;;;27.23;;
68976;SDS011;56029;52.568;13.588;2023-04-15T01:12:50;78.33;;;27.80;;
68976;SDS011;56029;52.568;13.588;2023-04-15T01:15:16;78.55;;;27.25;;
68976;SDS011;56029;52.568;13.588;2023-04-15T01:17:42;80.18;;;27.77;;
68976;SDS011;56029;52.568;13.588;2023-04-15T01:20:07;77.27;;;27.33;;
68976;SDS011;56029;52.568;13.588;2023-04-15T01:22:36;79.97;;;28.45;;
68976;SDS011;56029;52.568;13.588;2023-04-15T01:25:12;75.87;;;26.03;;
68976;SDS011;56029;52.568;13.588;2023-04-15T01:27:42;81.05;;;28.15;;
68976;SDS011;56029;52.568;13.588;2023-04-15T01:30:08;80.00;;;27.08;;
68976;SDS011;56029;52.568;13.588;2023-04-15T01:32:35;77.10;;;26.83;;
68976;SDS011;56029;52.568;13.588;2023-04-15T01:35:00;81.03;;;26.77;;
68976;SDS011;56029;52.568;13.588;2023-04-15T01:37:27;77.82;;;28.05;;
68976;SDS011;56029;52.568;13.588;2023-04-15T01:39:53;86.75;;;28.30;;
68976;SDS011;56029;52.568;13.588;2023-04-15T01:42:20;77.97;;;28.07;;
68976;SDS011;56029;52.568;13.588;2023-04-15T01:44:46;77.72;;;27.92;;
68976;SDS011;56029;52.568;13.588;2023-04-15T01:47:12;78.07;;;27.23;;
68976;SDS011;56029;52.568;13.588;2023-04-15T01:49:37;71.37;;;25.20;;
68976;SDS011;56029;52.568;13.588;2023-04-15T01:52:03;72.60;;;26.27;;
68976;SDS011;56029;52.568;13.588;2023-04-15T01:54:28;81.23;;;28.27;;
68976;SDS011;56029;52.568;13.588;2023-04-15T01:56:54;75.43;;;26.67;;
68976;SDS011;56029;52.568;13.588;2023-04-15T01:59:20;74.03;;;26.50;;
68976;SDS011;56029;52.568;13.588;2023-04-15T02:01:47;77.43;;;27.85;;
68976;SDS011;56029;52.568;13.588;2023-04-15T02:04:12;72.80;;;27.03;;
68976;SDS011;56029;52.568;13.588;2023-04-15T02:06:41;74.28;;;27.15;;
68976;SDS011;56029;52.568;13.588;2023-04-15T02:09:08;72.50;;;26.98;;
68976;SDS011;56029;52.568;13.588;2023-04-15T02:11:34;71.03;;;25.98;;
68976;SDS011;56029;52.568;13.588;2023-04-15T02:14:01;67.82;;;25.63;;
68976;SDS011;56029;52.568;13.588;2023-04-15T02:16:29;71.40;;;25.37;;
68976;SDS011;56029;52.568;13.588;2023-04-15T02:18:54;70.97;;;25.75;;
68976;SDS011;56029;52.568;13.588;2023-04-15T02:21:20;73.80;;;26.53;;
68976;SDS011;56029;52.568;13.588;2023-04-15T02:23:45;71.90;;;27.73;;
68976;SDS011;56029;52.568;13.588;2023-04-15T02:26:12;72.10;;;26.60;;
68976;SDS011;56029;52.568;13.588;2023-04-15T02:28:38;66.82;;;25.40;;
68976;SDS011;56029;52.568;13.588;2023-04-15T02:31:07;68.33;;;26.07;;
68976;SDS011;56029;52.568;13.588;2023-04-15T02:33:33;69.28;;;26.77;;
68976;SDS011;56029;52.568;13.588;2023-04-15T02:35:59;65.82;;;25.77;;
68976;SDS011;56029;52.568;13.588;2023-04-15T02:38:25;66.78;;;25.92;;
68976;SDS011;56029;52.568;13.588;2023-04-15T02:40:51;63.47;;;25.50;;
68976;SDS011;56029;52.568;13.588;2023-04-15T02:43:16;64.07;;;24.87;;
68976;SDS011;56029;52.568;13.588;2023-04-15T02:45:42;65.18;;;25.90;;
68976;SDS011;56029;52.568;13.588;2023-04-15T02:48:09;67.47;;;26.52;;
68976;SDS011;56029;52.568;13.588;2023-04-15T02:50:35;73.73;;;27.00;;
68976;SDS011;56029;52.568;13.588;2023-04-15T02:53:01;72.50;;;25.70;;
68976;SDS011;56029;52.568;13.588;2023-04-15T02:55:27;69.03;;;26.05;;
68976;SDS011;56029;52.568;13.588;2023-04-15T02:57:53;69.17;;;26.27;;
68976;SDS011;56029;52.568;13.588;2023-04-15T03:00:19;64.03;;;25.67;;
68976;SDS011;56029;52.568;13.588;2023-04-15T03:02:44;66.73;;;26.40;;
68976;SDS011;56029;52.568;13.588;2023-04-15T03:05:11;72.13;;;26.75;;
68976;SDS011;56029;52.568;13.588;2023-04-15T03:07:38;64.20;;;25.58;;
68976;SDS011;56029;52.568;13.588;2023-04-15T03:10:05;63.60;;;26.37;;
68976;SDS011;56029;52.568;13.588;2023-04-15T03:12:32;64.35;;;25.20;;
68976;SDS011;56029;52.568;13.588;2023-04-15T03:14:57;64.20;;;23.35;;
68976;SDS011;56029;52.568;13.588;2023-04-15T03:17:24;66.43;;;25.50;;
68976;SDS011;56029;52.568;13.588;2023-04-15T03:19:50;68.15;;;25.52;;
68976;SDS011;56029;52.568;13.588;2023-04-15T03:22:15;64.03;;;24.60;;
68976;SDS011;56029;52.568;13.588;2023-04-15T03:24:41;64.65;;;24.88;;
68976;SDS011;56029;52.568;13.588;2023-04-15T03:27:06;63.67;;;25.80;;
68976;SDS011;56029;52.568;13.588;2023-04-15T03:29:32;69.33;;;26.87;;
68976;SDS011;56029;52.568;13.588;2023-04-15T03:31:58;66.15;;;25.35;;
68976;SDS011;56029;52.568;13.588;2023-04-15T03:34:23;64.30;;;25.00;;
68976;SDS011;56029;52.568;13.588;2023-04-15T03:36:49;63.80;;;25.80;;
68976;SDS011;56029;52.568;13.588;2023-04-15T03:39:15;57.42;;;24.50;;
68976;SDS011;56029;52.568;13.588;2023-04-15T03:41:40;60.28;;;25.73;;
68976;SDS011;56029;52.568;13.588;2023-04-15T03:44:06;56.53;;;23.43;;
68976;SDS011;56029;52.568;13.588;2023-04-15T03:46:31;59.63;;;25.33;;
68976;SDS011;56029;52.568;13.588;2023-04-15T03:48:57;63.53;;;24.08;;
68976;SDS011;56029;52.568;13.588;2023-04-15T03:51:23;60.73;;;24.17;;
68976;SDS011;56029;52.568;13.588;2023-04-15T03:53:49;57.92;;;24.60;;
68976;SDS011;56029;52.568;13.588;2023-04-15T03:56:15;59.73;;;24.17;;
68976;SDS011;56029;52.568;13.588;2023-04-15T03:58:40;59.33;;;23.08;;
68976;SDS011;56029;52.568;13.588;2023-04-15T04:01:06;60.53;;;24.53;;
68976;SDS011;56029;52.568;13.588;2023-04-15T04:03:32;58.33;;;24.65;;
68976;SDS011;56029;52.568;13.588;2023-04-15T04:05:58;59.57;;;24.63;;
68976;SDS011;56029;52.568;13.588;2023-04-15T04:08:24;56.80;;;24.77;;
68976;SDS011;56029;52.568;13.588;2023-04-15T04:10:49;60.60;;;25.03;;
68976;SDS011;56029;52.568;13.588;2023-04-15T04:13:15;53.45;;;23.92;;
68976;SDS011;56029;52.568;13.588;2023-04-15T04:15:41;55.77;;;23.70;;
68976;SDS011;56029;52.568;13.588;2023-04-15T04:18:06;52.38;;;23.17;;
68976;SDS011;56029;52.568;13.588;2023-04-15T04:20:32;53.20;;;23.50;;
68976;SDS011;56029;52.568;13.588;2023-04-15T04:22:58;50.35;;;22.48;;
68976;SDS011;56029;52.568;13.588;2023-04-15T04:25:23;49.33;;;22.30;;
68976;SDS011;56029;52.568;13.588;2023-04-15T04:27:50;55.25;;;23.85;;
68976;SDS011;56029;52.568;13.588;2023-04-15T04:30:15;52.93;;;22.57;;
68976;SDS011;56029;52.568;13.588;2023-04-15T04:32:41;54.97;;;24.33;;
68976;SDS011;56029;52.568;13.588;2023-04-15T04:35:06;49.97;;;22.92;;
68976;SDS011;56029;52.568;13.588;2023-04-15T04:37:33;52.37;;;22.47;;
68976;SDS011;56029;52.568;13.588;2023-04-15T04:39:58;53.05;;;23.30;;
68976;SDS011;56029;52.568;13.588;2023-04-15T04:42:24;52.13;;;22.80;;
68976;SDS011;56029;52.568;13.588;2023-04-15T04:44:49;53.07;;;23.40;;
68976;SDS011;56029;52.568;13.588;2023-04-15T04:47:15;51.15;;;22.98;;
68976;SDS011;56029;52.568;13.588;2023-04-15T04:49:40;51.57;;;23.23;;
68976;SDS011;56029;52.568;13.588;2023-04-15T04:52:06;46.00;;;20.67;;
68976;SDS011;56029;52.568;13.588;2023-04-15T04:54:32;50.87;;;22.87;;
68976;SDS011;56029;52.568;13.588;2023-04-15T04:56:57;51.55;;;22.55;;
68976;SDS011;56029;52.568;13.588;2023-04-15T04:59:23;45.60;;;21.73;;
68976;SDS011;56029;52.568;13.588;2023-04-15T05:01:49;50.35;;;22.95;;
68976;SDS011;56029;52.568;13.588;2023-04-15T05:04:14;43.10;;;21.80;;
68976;SDS011;56029;52.568;13.588;2023-04-15T05:06:40;45.00;;;21.87;;
68976;SDS011;56029;52.568;13.588;2023-04-15T05:09:05;46.95;;;21.60;;
68976;SDS011;56029;52.568;13.588;2023-04-15T05:11:31;46.43;;;22.03;;
68976;SDS011;56029;52.568;13.588;2023-04-15T05:13:57;42.35;;;20.58;;
68976;SDS011;56029;52.568;13.588;2023-04-15T05:16:25;43.53;;;21.02;;
68976;SDS011;56029;52.568;13.588;2023-04-15T05:18:51;42.23;;;21.13;;
68976;SDS011;56029;52.568;13.588;2023-04-15T05:21:17;42.58;;;21.13;;
68976;SDS011;56029;52.568;13.588;2023-04-15T05:23:42;43.83;;;19.87;;
68976;SDS011;56029;52.568;13.588;2023-04-15T05:26:08;42.60;;;20.27;;
68976;SDS011;56029;52.568;13.588;2023-04-15T05:28:33;37.73;;;18.93;;
68976;SDS011;56029;52.568;13.588;2023-04-15T05:30:59;41.10;;;20.33;;
68976;SDS011;56029;52.568;13.588;2023-04-15T05:33:24;41.50;;;19.43;;
68976;SDS011;56029;52.568;13.588;2023-04-15T05:35:50;37.45;;;19.58;;
68976;SDS011;56029;52.568;13.588;2023-04-15T05:38:16;41.43;;;20.03;;
68976;SDS011;56029;52.568;13.588;2023-04-15T05:40:41;35.85;;;18.63;;
68976;SDS011;56029;52.568;13.588;2023-04-15T05:43:07;38.73;;;19.73;;
68976;SDS011;56029;52.568;13.588;2023-04-15T05:45:32;32.65;;;17.60;;
68976;SDS011;56029;52.568;13.588;2023-04-15T05:47:58;34.70;;;18.30;;
68976;SDS011;56029;52.568;13.588;2023-04-15T05:50:24;36.40;;;17.97;;
68976;SDS011;56029;52.568;13.588;2023-04-15T05:52:49;35.35;;;18.40;;
68976;SDS011;56029;52.568;13.588;2023-04-15T05:55:15;34.60;;;18.53;;
68976;SDS011;56029;52.568;13.588;2023-04-15T05:57:40;33.70;;;18.23;;
68976;SDS011;56029;52.568;13.588;2023-04-15T06:00:06;33.03;;;17.60;;
68976;SDS011;56029;52.568;13.588;2023-04-15T06:02:32;31.48;;;17.00;;
68976;SDS011;56029;52.568;13.588;2023-04-15T06:04:57;31.93;;;16.97;;
68976;SDS011;56029;52.568;13.588;2023-04-15T06:07:23;31.73;;;17.13;;
68976;SDS011;56029;52.568;13.588;2023-04-15T06:09:49;31.65;;;16.42;;
68976;SDS011;56029;52.568;13.588;2023-04-15T06:12:14;31.77;;;17.57;;
68976;SDS011;56029;52.568;13.588;2023-04-15T06:14:41;30.48;;;16.80;;
68976;SDS011;56029;52.568;13.588;2023-04-15T06:17:07;30.37;;;16.83;;
68976;SDS011;56029;52.568;13.588;2023-04-15T06:19:33;29.20;;;16.23;;
68976;SDS011;56029;52.568;13.588;2023-04-15T06:21:59;29.27;;;16.65;;
68976;SDS011;56029;52.568;13.588;2023-04-15T06:24:25;28.63;;;16.08;;
68976;SDS011;56029;52.568;13.588;2023-04-15T06:26:50;26.70;;;15.43;;
68976;SDS011;56029;52.568;13.588;2023-04-15T06:29:16;26.70;;;15.65;;
68976;SDS011;56029;52.568;13.588;2023-04-15T06:31:41;26.10;;;15.27;;
68976;SDS011;56029;52.568;13.588;2023-04-15T06:34:07;24.93;;;13.23;;
68976;SDS011;56029;52.568;13.588;2023-04-15T06:36:32;25.13;;;14.13;;
68976;SDS011;56029;52.568;13.588;2023-04-15T06:38:58;25.55;;;14.98;;
68976;SDS011;56029;52.568;13.588;2023-04-15T06:41:23;24.63;;;15.03;;
68976;SDS011;56029;52.568;13.588;2023-04-15T06:43:49;25.73;;;15.13;;
68976;SDS011;56029;52.568;13.588;2023-04-15T06:46:15;23.57;;;14.43;;
68976;SDS011;56029;52.568;13.588;2023-04-15T06:48:40;24.67;;;14.73;;
68976;SDS011;56029;52.568;13.588;2023-04-15T06:51:06;23.07;;;14.13;;
68976;SDS011;56029;52.568;13.588;2023-04-15T06:53:31;24.37;;;14.40;;
68976;SDS011;56029;52.568;13.588;2023-04-15T06:55:57;22.73;;;14.50;;
68976;SDS011;56029;52.568;13.588;2023-04-15T06:58:22;23.30;;;13.83;;
68976;SDS011;56029;52.568;13.588;2023-04-15T07:00:48;22.20;;;13.53;;
68976;SDS011;56029;52.568;13.588;2023-04-15T07:03:14;23.25;;;13.95;;
68976;SDS011;56029;52.568;13.588;2023-04-15T07:05:39;22.77;;;13.90;;
68976;SDS011;56029;52.568;13.588;2023-04-15T07:08:05;23.15;;;14.20;;
68976;SDS011;56029;52.568;13.588;2023-04-15T07:10:34;24.05;;;14.65;;
68976;SDS011;56029;52.568;13.588;2023-04-15T07:13:00;24.88;;;14.18;;
68976;SDS011;56029;52.568;13.588;2023-04-15T07:15:26;26.23;;;14.27;;
68976;SDS011;56029;52.568;13.588;2023-04-15T07:17:51;23.33;;;14.02;;
68976;SDS011;56029;52.568;13.588;2023-04-15T07:20:17;22.70;;;14.30;;
68976;SDS011;56029;52.568;13.588;2023-04-15T07:22:43;23.20;;;14.73;;
68976;SDS011;56029;52.568;13.588;2023-04-15T07:25:08;25.33;;;14.13;;
68976;SDS011;56029;52.568;13.588;2023-04-15T07:27:34;24.67;;;13.77;;
68976;SDS011;56029;52.568;13.588;2023-04-15T07:30:00;20.83;;;12.95;;
68976;SDS011;56029;52.568;13.588;2023-04-15T07:32:26;23.20;;;14.38;;
68976;SDS011;56029;52.568;13.588;2023-04-15T07:34:52;25.40;;;15.40;;
68976;SDS011;56029;52.568;13.588;2023-04-15T07:37:17;24.43;;;14.73;;
68976;SDS011;56029;52.568;13.588;2023-04-15T07:39:44;26.73;;;15.75;;
68976;SDS011;56029;52.568;13.588;2023-04-15T07:42:09;22.85;;;14.23;;
68976;SDS011;56029;52.568;13.588;2023-04-15T07:44:35;27.47;;;15.23;;
68976;SDS011;56029;52.568;13.588;2023-04-15T07:47:01;23.47;;;14.37;;
68976;SDS011;56029;52.568;13.588;2023-04-15T07:49:27;26.55;;;15.20;;
68976;SDS011;56029;52.568;13.588;2023-04-15T07:51:53;26.40;;;15.48;;
68976;SDS011;56029;52.568;13.588;2023-04-15T07:54:19;25.30;;;15.60;;
68976;SDS011;56029;52.568;13.588;2023-04-15T07:56:44;23.75;;;14.00;;
68976;SDS011;56029;52.568;13.588;2023-04-15T07:59:10;28.33;;;15.73;;
68976;SDS011;56029;52.568;13.588;2023-04-15T08:01:36;26.02;;;15.07;;
68976;SDS011;56029;52.568;13.588;2023-04-15T08:04:01;26.33;;;16.07;;
68976;SDS011;56029;52.568;13.588;2023-04-15T08:06:27;27.90;;;16.20;;
68976;SDS011;56029;52.568;13.588;2023-04-15T08:08:53;26.45;;;16.90;;
68976;SDS011;56029;52.568;13.588;2023-04-15T08:11:20;24.15;;;14.68;;
68976;SDS011;56029;52.568;13.588;2023-04-15T08:13:45;24.33;;;16.10;;
68976;SDS011;56029;52.568;13.588;2023-04-15T08:16:21;26.27;;;14.98;;
68976;SDS011;56029;52.568;13.588;2023-04-15T08:18:49;26.38;;;15.70;;
68976;SDS011;56029;52.568;13.588;2023-04-15T08:21:16;25.25;;;15.52;;
68976;SDS011;56029;52.568;13.588;2023-04-15T08:23:43;25.27;;;15.13;;
68976;SDS011;56029;52.568;13.588;2023-04-15T08:26:09;25.58;;;15.98;;
68976;SDS011;56029;52.568;13.588;2023-04-15T08:28:37;26.92;;;16.60;;
68976;SDS011;56029;52.568;13.588;2023-04-15T08:31:04;27.23;;;16.35;;
68976;SDS011;56029;52.568;13.588;2023-04-15T08:33:29;30.57;;;16.60;;
68976;SDS011;56029;52.568;13.588;2023-04-15T08:35:55;26.00;;;15.50;;
68976;SDS011;56029;52.568;13.588;2023-04-15T08:38:21;25.67;;;16.17;;
68976;SDS011;56029;52.568;13.588;2023-04-15T08:40:47;26.08;;;16.20;;
68976;SDS011;56029;52.568;13.588;2023-04-15T08:43:14;24.33;;;14.60;;
68976;SDS011;56029;52.568;13.588;2023-04-15T08:45:47;24.88;;;15.27;;
68976;SDS011;56029;52.568;13.588;2023-04-15T08:48:15;24.67;;;15.03;;
68976;SDS011;56029;52.568;13.588;2023-04-15T08:50:42;25.27;;;15.38;;
68976;SDS011;56029;52.568;13.588;2023-04-15T08:53:08;25.88;;;16.15;;
68976;SDS011;56029;52.568;13.588;2023-04-15T08:55:35;25.30;;;15.40;;
68976;SDS011;56029;52.568;13.588;2023-04-15T08:58:02;24.48;;;15.85;;
68976;SDS011;56029;52.568;13.588;2023-04-15T09:00:28;24.47;;;15.40;;
68976;SDS011;56029;52.568;13.588;2023-04-15T09:02:55;26.30;;;15.93;;
68976;SDS011;56029;52.568;13.588;2023-04-15T09:05:21;26.88;;;15.63;;
68976;SDS011;56029;52.568;13.588;2023-04-15T09:07:47;24.48;;;15.10;;
68976;SDS011;56029;52.568;13.588;2023-04-15T09:10:14;25.10;;;15.27;;
68976;SDS011;56029;52.568;13.588;2023-04-15T09:12:40;24.85;;;14.90;;
68976;SDS011;56029;52.568;13.588;2023-04-15T09:15:06;26.47;;;14.87;;
68976;SDS011;56029;52.568;13.588;2023-04-15T09:17:36;25.13;;;15.20;;
68976;SDS011;56029;52.568;13.588;2023-04-15T09:20:10;27.05;;;16.02;;
68976;SDS011;56029;52.568;13.588;2023-04-15T09:22:38;24.77;;;15.55;;
68976;SDS011;56029;52.568;13.588;2023-04-15T09:27:49;26.52;;;15.98;;
68976;SDS011;56029;52.568;13.588;2023-04-15T09:30:16;23.77;;;14.30;;
68976;SDS011;56029;52.568;13.588;2023-04-15T09:32:57;26.58;;;16.73;;
68976;SDS011;56029;52.568;13.588;2023-04-15T09:35:26;25.07;;;15.17;;
68976;SDS011;56029;52.568;13.588;2023-04-15T09:37:53;27.00;;;15.90;;
68976;SDS011;56029;52.568;13.588;2023-04-15T09:40:45;23.85;;;15.05;;
68976;SDS011;56029;52.568;13.588;2023-04-15T09:43:10;23.88;;;14.88;;
68976;SDS011;56029;52.568;13.588;2023-04-15T09:45:38;21.02;;;13.38;;
68976;SDS011;56029;52.568;13.588;2023-04-15T09:48:22;23.77;;;14.07;;
68976;SDS011;56029;52.568;13.588;2023-04-15T09:50:53;23.33;;;14.57;;
68976;SDS011;56029;52.568;13.588;2023-04-15T09:53:22;24.02;;;15.75;;
68976;SDS011;56029;52.568;13.588;2023-04-15T09:55:53;23.70;;;15.67;;
68976;SDS011;56029;52.568;13.588;2023-04-15T09:58:20;22.10;;;14.50;;
68976;SDS011;56029;52.568;13.588;2023-04-15T10:00:48;21.67;;;14.32;;
68976;SDS011;56029;52.568;13.588;2023-04-15T10:03:25;20.70;;;13.27;;
68976;SDS011;56029;52.568;13.588;2023-04-15T10:05:52;22.95;;;14.15;;
68976;SDS011;56029;52.568;13.588;2023-04-15T10:08:19;22.77;;;14.70;;
68976;SDS011;56029;52.568;13.588;2023-04-15T10:10:47;21.52;;;14.10;;
68976;SDS011;56029;52.568;13.588;2023-04-15T10:13:13;23.30;;;14.32;;
68976;SDS011;56029;52.568;13.588;2023-04-15T10:15:43;25.58;;;15.50;;
68976;SDS011;56029;52.568;13.588;2023-04-15T10:18:13;21.10;;;13.35;;
68976;SDS011;56029;52.568;13.588;2023-04-15T10:20:41;23.80;;;14.03;;
68976;SDS011;56029;52.568;13.588;2023-04-15T10:23:08;21.95;;;13.38;;
68976;SDS011;56029;52.568;13.588;2023-04-15T10:25:33;21.90;;;14.23;;
68976;SDS011;56029;52.568;13.588;2023-04-15T10:28:00;23.98;;;14.65;;
68976;SDS011;56029;52.568;13.588;2023-04-15T10:30:27;22.40;;;14.38;;
68976;SDS011;56029;52.568;13.588;2023-04-15T10:32:52;23.20;;;14.60;;
68976;SDS011;56029;52.568;13.588;2023-04-15T10:35:19;22.65;;;14.35;;
68976;SDS011;56029;52.568;13.588;2023-04-15T10:37:45;23.10;;;14.10;;
68976;SDS011;56029;52.568;13.588;2023-04-15T10:40:30;25.13;;;14.03;;
68976;SDS011;56029;52.568;13.588;2023-04-15T10:42:57;21.83;;;13.85;;
68976;SDS011;56029;52.568;13.588;2023-04-15T10:45:25;22.48;;;13.48;;
68976;SDS011;56029;52.568;13.588;2023-04-15T10:47:55;24.60;;;14.32;;
68976;SDS011;56029;52.568;13.588;2023-04-15T10:50:26;23.73;;;14.30;;
68976;SDS011;56029;52.568;13.588;2023-04-15T10:52:54;22.05;;;13.57;;
68976;SDS011;56029;52.568;13.588;2023-04-15T10:55:22;24.33;;;15.00;;
68976;SDS011;56029;52.568;13.588;2023-04-15T10:57:52;24.55;;;15.27;;
68976;SDS011;56029;52.568;13.588;2023-04-15T11:00:20;22.02;;;14.55;;
68976;SDS011;56029;52.568;13.588;2023-04-15T11:02:53;21.73;;;14.17;;
68976;SDS011;56029;52.568;13.588;2023-04-15T11:08:17;22.50;;;14.30;;
68976;SDS011;56029;52.568;13.588;2023-04-15T11:18:15;22.10;;;13.13;;
68976;SDS011;56029;52.568;13.588;2023-04-15T11:20:42;20.13;;;13.30;;
68976;SDS011;56029;52.568;13.588;2023-04-15T11:23:09;21.67;;;13.80;;
68976;SDS011;56029;52.568;13.588;2023-04-15T11:25:36;21.45;;;13.52;;
68976;SDS011;56029;52.568;13.588;2023-04-15T11:28:02;21.10;;;13.40;;
68976;SDS011;56029;52.568;13.588;2023-04-15T11:30:29;20.40;;;13.45;;
68976;SDS011;56029;52.568;13.588;2023-04-15T11:32:57;21.75;;;14.00;;
68976;SDS011;56029;52.568;13.588;2023-04-15T11:35:24;21.40;;;13.63;;
68976;SDS011;56029;52.568;13.588;2023-04-15T11:37:49;21.33;;;13.03;;
68976;SDS011;56029;52.568;13.588;2023-04-15T11:40:22;20.85;;;12.77;;
68976;SDS011;56029;52.568;13.588;2023-04-15T11:43:08;19.85;;;12.48;;
68976;SDS011;56029;52.568;13.588;2023-04-15T11:45:36;20.70;;;12.80;;
68976;SDS011;56029;52.568;13.588;2023-04-15T11:48:08;21.10;;;12.93;;
68976;SDS011;56029;52.568;13.588;2023-04-15T11:50:35;21.00;;;13.15;;
68976;SDS011;56029;52.568;13.588;2023-04-15T11:53:04;19.80;;;12.57;;
68976;SDS011;56029;52.568;13.588;2023-04-15T11:55:39;21.23;;;13.23;;
68976;SDS011;56029;52.568;13.588;2023-04-15T12:00:38;20.65;;;13.23;;
68976;SDS011;56029;52.568;13.588;2023-04-15T12:03:11;20.25;;;12.13;;
68976;SDS011;56029;52.568;13.588;2023-04-15T12:11:15;20.73;;;12.47;;
68976;SDS011;56029;52.568;13.588;2023-04-15T12:13:48;18.40;;;12.18;;
68976;SDS011;56029;52.568;13.588;2023-04-15T12:16:17;17.80;;;11.60;;
68976;SDS011;56029;52.568;13.588;2023-04-15T12:18:46;17.90;;;11.25;;
68976;SDS011;56029;52.568;13.588;2023-04-15T12:21:19;19.80;;;12.30;;
68976;SDS011;56029;52.568;13.588;2023-04-15T12:23:48;19.55;;;12.27;;
68976;SDS011;56029;52.568;13.588;2023-04-15T12:26:52;18.63;;;12.23;;
68976;SDS011;56029;52.568;13.588;2023-04-15T12:29:12;18.67;;;11.90;;
68976;SDS011;56029;52.568;13.588;2023-04-15T12:31:49;17.80;;;11.18;;
68976;SDS011;56029;52.568;13.588;2023-04-15T12:34:36;19.00;;;11.73;;
68976;SDS011;56029;52.568;13.588;2023-04-15T12:37:04;18.73;;;12.00;;
68976;SDS011;56029;52.568;13.588;2023-04-15T12:39:38;17.83;;;11.20;;
68976;SDS011;56029;52.568;13.588;2023-04-15T12:42:05;16.60;;;10.45;;
68976;SDS011;56029;52.568;13.588;2023-04-15T12:44:31;16.93;;;11.03;;
68976;SDS011;56029;52.568;13.588;2023-04-15T12:46:58;17.05;;;10.98;;
68976;SDS011;56029;52.568;13.588;2023-04-15T12:49:24;15.98;;;9.93;;
68976;SDS011;56029;52.568;13.588;2023-04-15T12:51:50;16.15;;;10.02;;
68976;SDS011;56029;52.568;13.588;2023-04-15T12:54:18;15.73;;;10.23;;
68976;SDS011;56029;52.568;13.588;2023-04-15T12:56:45;16.40;;;10.10;;
68976;SDS011;56029;52.568;13.588;2023-04-15T12:59:11;19.25;;;10.63;;
68976;SDS011;56029;52.568;13.588;2023-04-15T13:01:38;16.40;;;10.10;;
68976;SDS011;56029;52.568;13.588;2023-04-15T13:04:04;16.08;;;9.60;;
68976;SDS011;56029;52.568;13.588;2023-04-15T13:06:30;15.63;;;9.97;;
68976;SDS011;56029;52.568;13.588;2023-04-15T13:08:58;16.73;;;10.80;;
68976;SDS011;56029;52.568;13.588;2023-04-15T13:11:24;15.50;;;10.18;;
68976;SDS011;56029;52.568;13.588;2023-04-15T13:13:50;16.27;;;10.38;;
68976;SDS011;56029;52.568;13.588;2023-04-15T13:16:17;15.27;;;9.67;;
68976;SDS011;56029;52.568;13.588;2023-04-15T13:18:43;16.10;;;10.50;;
68976;SDS011;56029;52.568;13.588;2023-04-15T13:21:11;15.10;;;9.38;;
68976;SDS011;56029;52.568;13.588;2023-04-15T13:23:36;14.10;;;8.50;;
68976;SDS011;56029;52.568;13.588;2023-04-15T13:26:02;13.10;;;8.13;;
68976;SDS011;56029;52.568;13.588;2023-04-15T13:28:28;13.18;;;8.10;;
68976;SDS011;56029;52.568;13.588;2023-04-15T13:30:53;13.73;;;8.65;;
68976;SDS011;56029;52.568;13.588;2023-04-15T13:33:19;13.13;;;8.80;;
68976;SDS011;56029;52.568;13.588;2023-04-15T13:35:45;14.43;;;8.80;;
68976;SDS011;56029;52.568;13.588;2023-04-15T13:38:10;13.07;;;8.02;;
68976;SDS011;56029;52.568;13.588;2023-04-15T13:40:36;13.00;;;8.33;;
68976;SDS011;56029;52.568;13.588;2023-04-15T13:43:01;12.57;;;7.70;;
68976;SDS011;56029;52.568;13.588;2023-04-15T13:45:27;11.77;;;7.47;;
68976;SDS011;56029;52.568;13.588;2023-04-15T13:47:54;12.95;;;8.30;;
68976;SDS011;56029;52.568;13.588;2023-04-15T13:50:21;12.35;;;7.72;;
68976;SDS011;56029;52.568;13.588;2023-04-15T13:52:46;11.60;;;7.30;;
68976;SDS011;56029;52.568;13.588;2023-04-15T13:55:12;11.77;;;7.83;;
68976;SDS011;56029;52.568;13.588;2023-04-15T13:57:37;11.02;;;7.13;;
68976;SDS011;56029;52.568;13.588;2023-04-15T14:00:03;11.23;;;7.17;;
68976;SDS011;56029;52.568;13.588;2023-04-15T14:02:30;11.75;;;7.05;;
68976;SDS011;56029;52.568;13.588;2023-04-15T14:04:55;13.30;;;7.43;;
68976;SDS011;56029;52.568;13.588;2023-04-15T14:07:21;12.05;;;7.50;;
68976;SDS011;56029;52.568;13.588;2023-04-15T14:09:47;13.57;;;8.10;;
68976;SDS011;56029;52.568;13.588;2023-04-15T14:12:12;13.53;;;8.13;;
68976;SDS011;56029;52.568;13.588;2023-04-15T14:14:39;12.63;;;8.05;;
68976;SDS011;56029;52.568;13.588;2023-04-15T14:17:04;12.63;;;7.70;;
68976;SDS011;56029;52.568;13.588;2023-04-15T14:19:31;11.68;;;7.50;;
68976;SDS011;56029;52.568;13.588;2023-04-15T14:21:56;12.07;;;7.93;;
68976;SDS011;56029;52.568;13.588;2023-04-15T14:24:23;12.77;;;8.32;;
68976;SDS011;56029;52.568;13.588;2023-04-15T14:26:48;12.67;;;8.03;;
68976;SDS011;56029;52.568;13.588;2023-04-15T14:29:14;14.15;;;8.15;;
68976;SDS011;56029;52.568;13.588;2023-04-15T14:31:40;13.83;;;8.57;;